KDDC/DDC METAR and TAF weather

Enter ICAO airport designator
Station Type Date Time Source
KDDC METAR 2020/01/26 18:52 UTC NOAA

KDDC 261852Z AUTO 30010KT 10SM CLR 13/01 A3003 RMK AO2 SLP170 T01330006


Station Type Date Time Source
KDDC Decoded METAR 2020/01/26 18:52 UTC NOAA

DODGE CITY REGIONAL AIRPORT, KS, United States (KDDC) 37-46N 99-58W 789M
Jan 26, 2020 - 01:52 PM EST / 2020.01.26 1852 UTC
Wind: from the WNW (300 degrees) at 12 MPH (10 KT):0
Visibility: 10 mile(s):0
Sky conditions: clear
Temperature: 55.9 F (13.3 C)
Dew Point: 33.1 F (0.6 C)
Relative Humidity: 41%
Pressure (altimeter): 30.03 in. Hg (1016 hPa)
ob: KDDC 261852Z AUTO 30010KT 10SM CLR 13/01 A3003 RMK AO2 SLP170 T01330006
cycle: 19

Station Type Date Time Source
KDDC TAF 2020/01/26 18:22 UTC NOAA

TAF KDDC 261720Z 2618/2718 31009KT P6SM FEW090
FM271400 04012KT P6SM FEW250

Example: see airport list